createdAt,value
2023-11-26T00:01:27.993Z,70.00
2023-11-26T00:03:54.911Z,67.89
2023-11-26T00:06:21.684Z,68.06
2023-11-26T00:08:48.419Z,67.97
2023-11-26T00:11:15.224Z,67.01
2023-11-26T00:13:42.176Z,67.83
2023-11-26T00:16:09.008Z,67.67
2023-11-26T00:18:38.726Z,67.54
2023-11-26T00:21:05.688Z,68.12
2023-11-26T00:23:32.301Z,66.93
2023-11-26T00:25:59.098Z,68.65
2023-11-26T00:28:25.980Z,67.34
2023-11-26T00:30:52.939Z,65.57
2023-11-26T00:33:20.452Z,66.52
2023-11-26T00:35:47.514Z,65.25
2023-11-26T00:38:14.229Z,66.77
2023-11-26T00:40:41.181Z,65.94
2023-11-26T00:43:07.870Z,65.24
2023-11-26T00:45:35.537Z,65.61
2023-11-26T00:48:02.594Z,64.38
2023-11-26T00:50:29.713Z,66.35
2023-11-26T00:52:56.563Z,67.00
2023-11-26T00:55:23.411Z,68.00
2023-11-26T00:57:50.940Z,68.63
2023-11-26T01:03:32.241Z,70.39
2023-11-26T01:06:00.159Z,67.49
2023-11-26T01:08:26.936Z,66.56
2023-11-26T01:10:53.712Z,68.97
2023-11-26T01:13:20.864Z,66.94
2023-11-26T01:15:47.667Z,66.54
2023-11-26T01:18:14.621Z,65.86
2023-11-26T01:20:41.379Z,64.22
2023-11-26T01:23:08.429Z,66.07
2023-11-26T01:25:35.452Z,65.84
2023-11-26T01:28:02.365Z,64.82
2023-11-26T01:30:29.078Z,65.38
2023-11-26T01:32:56.119Z,65.33
2023-11-26T01:35:22.972Z,66.99
2023-11-26T01:37:49.913Z,65.45
2023-11-26T01:40:16.616Z,65.69
2023-11-26T01:42:45.209Z,64.60
2023-11-26T01:45:15.005Z,64.41
2023-11-26T01:47:42.116Z,65.51
2023-11-26T01:50:10.593Z,64.78
2023-11-26T01:52:37.786Z,65.40
2023-11-26T01:55:05.548Z,65.87
2023-11-26T01:57:32.570Z,67.16
2023-11-26T02:00:00.654Z,67.34
2023-11-26T02:02:27.608Z,66.18
2023-11-26T02:04:54.414Z,66.17
2023-11-26T02:07:21.374Z,67.42
2023-11-26T02:09:48.832Z,66.93
2023-11-26T02:12:15.630Z,66.89
2023-11-26T02:14:47.726Z,66.43
2023-11-26T02:17:16.217Z,65.16
2023-11-26T02:19:44.096Z,64.29
2023-11-26T02:22:10.863Z,65.01
2023-11-26T02:24:48.084Z,63.63
2023-11-26T02:27:15.629Z,61.97
2023-11-26T02:29:43.098Z,62.37
2023-11-26T02:32:10.233Z,62.17
2023-11-26T02:34:37.682Z,61.96
2023-11-26T02:37:04.884Z,62.89
2023-11-26T02:39:31.623Z,63.34
2023-11-26T02:42:02.190Z,62.84
2023-11-26T02:44:29.092Z,62.51
2023-11-26T02:46:55.902Z,62.67
2023-11-26T02:49:23.645Z,62.64
2023-11-26T02:51:50.434Z,61.59
2023-11-26T02:54:17.186Z,61.46
2023-11-26T02:56:45.529Z,61.12
2023-11-26T02:59:14.205Z,63.12
2023-11-26T03:01:41.817Z,63.65
2023-11-26T03:04:10.290Z,63.23
2023-11-26T03:06:37.916Z,63.55
2023-11-26T03:09:23.300Z,62.34
2023-11-26T03:12:08.820Z,62.37
2023-11-26T03:14:35.598Z,63.37
2023-11-26T03:17:02.885Z,62.70
2023-11-26T03:19:30.190Z,62.51
2023-11-26T03:21:59.368Z,62.66
2023-11-26T03:24:26.095Z,61.80
2023-11-26T03:26:52.773Z,62.00
2023-11-26T03:29:19.840Z,62.99
2023-11-26T03:31:48.626Z,62.57
2023-11-26T03:34:15.515Z,63.37
2023-11-26T03:36:42.496Z,62.83
2023-11-26T03:39:09.253Z,61.52
2023-11-26T03:41:35.989Z,62.25
2023-11-26T03:44:03.763Z,62.02
2023-11-26T03:46:33.849Z,62.12
2023-11-26T03:49:01.533Z,61.62
2023-11-26T03:51:29.836Z,61.97
2023-11-26T03:53:57.144Z,60.49
2023-11-26T03:56:25.244Z,61.84
2023-11-26T03:58:52.194Z,60.90
2023-11-26T04:01:19.069Z,60.61
2023-11-26T04:03:45.800Z,60.67
2023-11-26T04:06:12.636Z,59.94
2023-11-26T04:08:39.388Z,60.96
2023-11-26T04:11:07.219Z,62.15
2023-11-26T04:13:34.868Z,61.29
2023-11-26T04:16:06.315Z,62.12
2023-11-26T04:18:35.335Z,61.90
2023-11-26T04:21:02.697Z,61.22
2023-11-26T04:23:29.717Z,60.87
2023-11-26T04:25:56.675Z,63.05
2023-11-26T04:28:23.435Z,63.56
2023-11-26T04:30:50.360Z,64.24
2023-11-26T04:33:19.795Z,64.13
2023-11-26T04:35:46.591Z,65.31
2023-11-26T04:38:13.909Z,65.52
2023-11-26T04:40:41.163Z,66.16
2023-11-26T04:43:07.954Z,65.70
2023-11-26T04:45:34.737Z,65.37
2023-11-26T04:48:01.540Z,68.24
2023-11-26T04:50:29.374Z,70.52
2023-11-26T04:52:56.220Z,71.13
2023-11-26T04:55:23.723Z,71.97
2023-11-26T04:57:50.578Z,71.40
2023-11-26T05:00:17.914Z,72.35
2023-11-26T05:02:44.924Z,71.11
2023-11-26T05:05:11.971Z,71.95
2023-11-26T05:07:39.511Z,72.09
2023-11-26T05:10:07.718Z,73.88
2023-11-26T05:12:36.013Z,71.97
2023-11-26T05:15:05.718Z,72.47
2023-11-26T05:17:32.697Z,72.67
2023-11-26T05:19:59.701Z,73.32
2023-11-26T05:22:26.595Z,71.62
2023-11-26T05:24:53.314Z,73.32
2023-11-26T05:27:20.078Z,71.93
2023-11-26T05:29:46.820Z,73.22
2023-11-26T05:32:13.684Z,71.41
2023-11-26T05:34:40.381Z,71.11
2023-11-26T05:37:07.239Z,72.56
2023-11-26T05:39:34.075Z,72.01
2023-11-26T05:42:01.242Z,71.93
2023-11-26T05:44:27.994Z,72.31
2023-11-26T05:46:54.837Z,72.07
2023-11-26T05:49:21.690Z,73.17
2023-11-26T05:51:48.396Z,72.86
2023-11-26T05:54:15.545Z,73.87
2023-11-26T05:56:45.440Z,73.36
2023-11-26T05:59:12.217Z,73.57
2023-11-26T06:01:39.087Z,72.77
2023-11-26T06:04:05.852Z,74.23
2023-11-26T06:06:32.636Z,74.24
2023-11-26T06:08:59.413Z,73.98
2023-11-26T06:11:26.275Z,73.97
2023-11-26T06:13:53.061Z,74.95
2023-11-26T06:16:19.738Z,75.74
2023-11-26T06:18:46.790Z,75.47
2023-11-26T06:21:16.518Z,76.39
2023-11-26T06:23:43.345Z,77.81
2023-11-26T06:26:10.072Z,78.03
2023-11-26T06:28:37.511Z,76.68
2023-11-26T06:31:04.893Z,76.27
2023-11-26T06:33:31.475Z,76.69
2023-11-26T06:36:00.142Z,77.32
2023-11-26T06:38:26.912Z,77.82
2023-11-26T06:40:53.758Z,77.77
2023-11-26T06:43:20.485Z,77.68
2023-11-26T06:45:47.313Z,77.28
2023-11-26T06:48:14.068Z,77.67
2023-11-26T06:50:41.032Z,76.57
2023-11-26T06:53:08.278Z,76.71
2023-11-26T06:55:35.001Z,75.91
2023-11-26T06:58:01.872Z,75.32
2023-11-26T07:00:31.135Z,74.99
2023-11-26T07:02:58.539Z,75.88
2023-11-26T07:05:25.618Z,75.26
2023-11-26T07:07:52.534Z,75.66
2023-11-26T07:10:19.309Z,76.14
2023-11-26T07:12:46.020Z,75.59
2023-11-26T07:15:12.958Z,76.77
2023-11-26T07:17:39.737Z,76.53
2023-11-26T07:20:11.411Z,75.62
2023-11-26T07:22:38.297Z,75.35
2023-11-26T07:25:05.670Z,76.12
2023-11-26T07:27:32.458Z,75.57
2023-11-26T07:29:59.138Z,74.19
2023-11-26T07:32:28.036Z,75.00
2023-11-26T07:34:54.858Z,75.55
2023-11-26T07:37:22.691Z,75.35
2023-11-26T07:39:49.515Z,73.83
2023-11-26T07:42:16.680Z,73.84
2023-11-26T07:44:43.358Z,73.11
2023-11-26T07:47:10.082Z,72.12
2023-11-26T07:49:37.612Z,71.47
2023-11-26T07:52:05.134Z,71.90
2023-11-26T07:54:31.950Z,71.67
2023-11-26T07:56:58.689Z,72.29
2023-11-26T07:59:25.383Z,71.54
2023-11-26T08:01:53.772Z,71.42
2023-11-26T08:04:20.872Z,70.98
2023-11-26T08:06:50.989Z,71.69
2023-11-26T08:09:18.606Z,69.98
2023-11-26T08:11:47.516Z,71.03
2023-11-26T08:14:15.458Z,69.16
2023-11-26T08:16:43.990Z,68.39
2023-11-26T08:19:19.066Z,66.87
2023-11-26T08:21:46.047Z,66.90
2023-11-26T08:24:19.225Z,69.61
2023-11-26T08:26:47.594Z,69.08
2023-11-26T08:29:17.580Z,69.07
2023-11-26T08:31:45.935Z,66.67
2023-11-26T08:34:17.135Z,70.58
2023-11-26T08:36:45.195Z,70.47
2023-11-26T08:39:21.186Z,69.09
2023-11-26T08:41:48.354Z,69.13
2023-11-26T08:44:15.465Z,68.31
2023-11-26T08:46:43.016Z,66.37
2023-11-26T08:49:10.935Z,66.08
2023-11-26T08:51:38.929Z,65.69
2023-11-26T08:54:05.983Z,65.89
2023-11-26T08:56:32.644Z,63.79
2023-11-26T08:58:59.903Z,64.39
2023-11-26T09:01:26.829Z,64.40
2023-11-26T09:03:53.552Z,63.49
2023-11-26T09:06:20.434Z,62.99
2023-11-26T09:08:52.041Z,62.72
2023-11-26T09:11:19.826Z,62.15
2023-11-26T09:13:47.717Z,62.81
2023-11-26T09:16:14.827Z,61.98
2023-11-26T09:18:41.942Z,61.11
2023-11-26T09:21:08.815Z,60.43
2023-11-26T09:23:35.812Z,60.56
2023-11-26T09:26:02.606Z,59.47
2023-11-26T09:28:31.275Z,59.10
2023-11-26T09:30:58.187Z,59.09
2023-11-26T09:33:26.102Z,59.38
2023-11-26T09:35:52.901Z,59.50
2023-11-26T09:38:20.543Z,59.68
2023-11-26T09:40:47.444Z,60.47
2023-11-26T09:43:14.898Z,59.58
2023-11-26T09:45:41.813Z,60.38
2023-11-26T09:48:10.906Z,61.35
2023-11-26T09:50:38.044Z,60.67
2023-11-26T09:53:08.309Z,60.18
2023-11-26T09:55:40.599Z,61.02
2023-11-26T09:58:08.319Z,62.26
2023-11-26T10:00:35.858Z,62.84
2023-11-26T10:03:04.280Z,62.15
2023-11-26T10:05:33.877Z,62.89
2023-11-26T10:08:02.259Z,62.74
2023-11-26T10:10:29.773Z,65.44
2023-11-26T10:13:01.611Z,64.94
2023-11-26T10:15:30.901Z,63.73
2023-11-26T10:18:01.834Z,63.83
2023-11-26T10:20:28.948Z,62.46
2023-11-26T10:22:55.804Z,61.48
2023-11-26T10:25:24.299Z,63.01
2023-11-26T10:27:56.834Z,63.20
2023-11-26T10:30:34.400Z,62.76
2023-11-26T10:33:06.867Z,63.03
2023-11-26T10:35:50.144Z,65.42
2023-11-26T10:38:18.815Z,64.84
2023-11-26T10:40:46.337Z,64.60
2023-11-26T10:43:13.809Z,63.07
2023-11-26T10:45:43.664Z,62.86
2023-11-26T10:48:20.007Z,62.24
2023-11-26T10:50:53.618Z,62.12
2023-11-26T10:53:34.053Z,62.86
2023-11-26T10:56:04.301Z,63.21
2023-11-26T10:58:40.329Z,64.25
2023-11-26T11:01:08.719Z,65.32
2023-11-26T11:03:35.805Z,67.58
2023-11-26T11:06:03.981Z,66.29
2023-11-26T11:08:31.861Z,65.45
2023-11-26T11:11:23.609Z,64.63
2023-11-26T11:13:53.340Z,63.23
2023-11-26T11:16:20.901Z,64.45
2023-11-26T11:18:47.915Z,65.14
2023-11-26T11:21:17.834Z,65.17
2023-11-26T11:23:53.754Z,63.79
2023-11-26T11:26:22.633Z,61.42
2023-11-26T11:28:55.242Z,63.35
2023-11-26T11:31:25.041Z,63.36
2023-11-26T11:34:12.893Z,64.71
2023-11-26T11:36:49.287Z,64.65
2023-11-26T11:39:18.830Z,63.78
2023-11-26T11:41:57.453Z,62.14
2023-11-26T11:44:32.490Z,63.56
2023-11-26T11:47:00.997Z,63.71
2023-11-26T11:49:48.088Z,63.58
2023-11-26T11:52:15.885Z,63.28
2023-11-26T11:54:48.725Z,62.44
2023-11-26T11:57:17.123Z,61.17
2023-11-26T11:59:45.807Z,61.32
2023-11-26T12:02:13.876Z,60.16
2023-11-26T12:04:43.636Z,59.80
2023-11-26T12:07:10.884Z,60.21
2023-11-26T12:09:39.612Z,58.85
2023-11-26T12:12:07.870Z,58.78
2023-11-26T12:14:38.791Z,57.84
2023-11-26T12:17:09.496Z,58.23
2023-11-26T12:19:43.097Z,57.77
2023-11-26T12:22:11.801Z,57.99
2023-11-26T12:24:40.560Z,56.30
2023-11-26T12:27:09.434Z,57.22
2023-11-26T12:29:39.686Z,55.82
2023-11-26T12:32:09.612Z,55.04
2023-11-26T12:34:41.189Z,56.00
2023-11-26T12:37:13.832Z,54.56
2023-11-26T12:39:44.968Z,52.31
2023-11-26T12:42:12.128Z,52.91
2023-11-26T12:44:39.895Z,53.05
2023-11-26T12:47:11.813Z,53.96
2023-11-26T12:49:43.483Z,53.36
2023-11-26T12:52:12.021Z,51.81
2023-11-26T12:54:39.647Z,52.67
2023-11-26T12:57:07.636Z,52.36
2023-11-26T12:59:48.446Z,51.48
2023-11-26T13:02:16.756Z,50.17
2023-11-26T13:04:44.633Z,51.74
2023-11-26T13:07:11.875Z,51.14
2023-11-26T13:09:53.320Z,49.62
2023-11-26T13:12:21.886Z,51.84
2023-11-26T13:14:49.890Z,50.47
2023-11-26T13:17:19.667Z,49.11
2023-11-26T13:19:48.927Z,49.49
2023-11-26T13:22:16.292Z,49.89
2023-11-26T13:24:44.115Z,50.10
2023-11-26T13:27:11.916Z,51.22
2023-11-26T13:29:43.253Z,51.72
2023-11-26T13:32:10.555Z,53.85
2023-11-26T13:34:39.071Z,54.08
2023-11-26T13:37:10.477Z,54.70
2023-11-26T13:39:38.103Z,55.10
2023-11-26T13:42:05.536Z,53.88
2023-11-26T13:44:37.331Z,54.56
2023-11-26T13:47:06.322Z,55.63
2023-11-26T13:49:33.293Z,54.90
2023-11-26T13:52:03.473Z,55.36
2023-11-26T13:54:32.099Z,55.33
2023-11-26T13:56:59.003Z,54.95
2023-11-26T13:59:26.524Z,54.74
2023-11-26T14:01:56.041Z,54.22
2023-11-26T14:04:24.623Z,54.92
2023-11-26T14:06:58.937Z,54.69
2023-11-26T14:09:27.502Z,54.45
2023-11-26T14:11:55.361Z,54.54
2023-11-26T14:14:22.866Z,54.84
2023-11-26T14:16:49.939Z,56.32
2023-11-26T14:19:18.022Z,55.63
2023-11-26T14:21:45.632Z,55.67
2023-11-26T14:24:13.362Z,55.19
2023-11-26T14:26:42.405Z,54.35
2023-11-26T14:29:10.193Z,53.84
2023-11-26T14:31:38.395Z,54.29
2023-11-26T14:34:06.118Z,52.98
2023-11-26T14:36:34.040Z,51.84
2023-11-26T14:39:02.946Z,52.47
2023-11-26T14:41:30.938Z,51.47
2023-11-26T14:43:59.070Z,51.68
2023-11-26T14:46:26.248Z,52.21
2023-11-26T14:48:53.319Z,55.80
2023-11-26T14:51:21.549Z,54.97
2023-11-26T14:53:51.335Z,55.78
2023-11-26T14:56:18.716Z,56.87
2023-11-26T14:58:45.941Z,58.07
2023-11-26T15:01:15.270Z,58.96
2023-11-26T15:03:48.387Z,58.63
2023-11-26T15:06:15.552Z,58.30
2023-11-26T15:08:42.736Z,57.88
2023-11-26T15:11:11.666Z,57.52
2023-11-26T15:13:38.500Z,57.98
2023-11-26T15:16:05.977Z,56.96
2023-11-26T15:18:33.689Z,57.69
2023-11-26T15:21:03.641Z,57.78
2023-11-26T15:23:34.650Z,57.42
2023-11-26T15:26:02.811Z,57.59
2023-11-26T15:28:29.795Z,58.44
2023-11-26T15:30:57.832Z,58.12
2023-11-26T15:33:24.867Z,59.47
2023-11-26T15:35:52.536Z,58.99
2023-11-26T15:38:19.935Z,58.63
2023-11-26T15:40:48.491Z,58.05
2023-11-26T15:43:18.042Z,57.66
2023-11-26T15:45:47.941Z,57.09
2023-11-26T15:48:18.934Z,57.17
2023-11-26T15:50:46.173Z,57.98
2023-11-26T15:53:13.199Z,58.21
2023-11-26T15:55:39.961Z,57.36
2023-11-26T15:58:06.826Z,56.40
2023-11-26T16:00:33.642Z,56.07
2023-11-26T16:03:00.423Z,55.23
2023-11-26T16:05:28.441Z,54.01
2023-11-26T16:07:55.395Z,55.04
2023-11-26T16:10:22.905Z,56.10
2023-11-26T16:12:51.249Z,54.94
2023-11-26T16:15:18.515Z,56.69
2023-11-26T16:17:45.478Z,55.72
2023-11-26T16:20:13.343Z,55.35
2023-11-26T16:22:40.437Z,54.83
2023-11-26T16:25:10.899Z,55.36
2023-11-26T16:27:38.112Z,58.11
2023-11-26T16:30:07.293Z,59.31
2023-11-26T16:32:34.464Z,59.09
2023-11-26T16:35:01.410Z,60.62
2023-11-26T16:37:30.175Z,61.60
2023-11-26T16:39:57.954Z,61.69
2023-11-26T16:42:25.279Z,62.13
2023-11-26T16:44:52.652Z,61.61
2023-11-26T16:47:20.171Z,61.93
2023-11-26T16:49:48.239Z,62.45
2023-11-26T16:52:15.165Z,62.20
2023-11-26T16:54:42.953Z,62.65
2023-11-26T16:57:10.286Z,62.67
2023-11-26T16:59:38.521Z,61.98
2023-11-26T17:02:05.518Z,61.56
2023-11-26T17:04:32.343Z,63.39
2023-11-26T17:06:59.222Z,63.73
2023-11-26T17:09:26.716Z,63.32
2023-11-26T17:11:53.762Z,64.21
2023-11-26T17:14:20.608Z,64.89
2023-11-26T17:16:51.213Z,64.96
2023-11-26T17:19:18.644Z,65.33
2023-11-26T17:21:47.519Z,64.81
2023-11-26T17:24:16.043Z,65.08
2023-11-26T17:26:44.241Z,64.22
2023-11-26T17:29:12.038Z,65.59
2023-11-26T17:31:40.523Z,64.19
2023-11-26T17:34:09.479Z,65.72
2023-11-26T17:36:40.399Z,65.24
2023-11-26T17:39:07.876Z,65.23
2023-11-26T17:41:34.961Z,65.68
2023-11-26T17:44:02.780Z,66.09
2023-11-26T17:46:30.012Z,67.54
2023-11-26T17:48:57.155Z,66.54
2023-11-26T17:51:24.935Z,66.04
2023-11-26T17:53:51.957Z,66.75
2023-11-26T17:56:20.154Z,68.39
2023-11-26T17:58:47.326Z,68.17
2023-11-26T18:01:14.852Z,67.90
2023-11-26T18:03:42.009Z,69.15
2023-11-26T18:09:18.072Z,69.87
2023-11-26T18:11:45.422Z,70.66
2023-11-26T18:14:15.428Z,72.20
2023-11-26T18:16:47.475Z,71.10
2023-11-26T18:19:15.556Z,72.12
2023-11-26T18:21:43.439Z,71.00
2023-11-26T18:24:13.465Z,70.82
2023-11-26T18:26:40.295Z,71.52
2023-11-26T18:29:07.604Z,71.45
2023-11-26T18:31:41.332Z,70.47
2023-11-26T18:34:08.508Z,71.12
2023-11-26T18:36:35.314Z,71.87
2023-11-26T18:39:02.583Z,72.70
2023-11-26T18:41:29.510Z,72.52
2023-11-26T18:43:57.158Z,73.12
2023-11-26T18:46:27.376Z,73.78
2023-11-26T18:48:54.331Z,72.95
2023-11-26T18:51:21.351Z,72.78
2023-11-26T18:53:48.116Z,72.02
2023-11-26T18:56:21.949Z,73.32
2023-11-26T18:58:48.785Z,72.55
2023-11-26T19:01:16.312Z,72.06
2023-11-26T19:03:43.705Z,72.55
2023-11-26T19:06:16.223Z,71.58
2023-11-26T19:08:43.815Z,71.57
2023-11-26T19:11:13.779Z,72.21
2023-11-26T19:13:41.824Z,72.57
2023-11-26T19:16:13.614Z,72.26
2023-11-26T19:18:40.840Z,71.95
2023-11-26T19:21:08.013Z,72.26
2023-11-26T19:23:35.243Z,73.35
2023-11-26T19:26:02.014Z,71.03
2023-11-26T19:28:30.972Z,70.73
2023-11-26T19:31:00.601Z,69.60
2023-11-26T19:33:28.141Z,71.73
2023-11-26T19:35:54.969Z,73.22
2023-11-26T19:38:22.179Z,73.74
2023-11-26T19:40:51.531Z,73.58
2023-11-26T19:43:18.994Z,72.51
2023-11-26T19:45:45.841Z,74.80
2023-11-26T19:48:13.556Z,73.35
2023-11-26T19:50:41.026Z,72.17
2023-11-26T19:53:08.685Z,71.77
2023-11-26T19:55:38.741Z,72.66
2023-11-26T19:58:05.716Z,72.49
2023-11-26T20:00:32.902Z,73.86
2023-11-26T20:03:00.052Z,75.36
2023-11-26T20:05:26.768Z,73.91
2023-11-26T20:07:53.714Z,72.84
2023-11-26T20:10:20.688Z,75.13
2023-11-26T20:12:49.572Z,75.60
2023-11-26T20:15:16.582Z,75.44
2023-11-26T20:17:43.849Z,75.96
2023-11-26T20:20:11.243Z,74.26
2023-11-26T20:22:39.189Z,75.23
2023-11-26T20:25:07.081Z,75.07
2023-11-26T20:27:34.519Z,74.38
2023-11-26T20:30:01.934Z,75.15
2023-11-26T20:32:28.737Z,74.86
2023-11-26T20:34:55.854Z,75.05
2023-11-26T20:37:22.686Z,75.71
2023-11-26T20:39:49.839Z,75.21
2023-11-26T20:42:17.186Z,74.41
2023-11-26T20:44:47.686Z,74.96
2023-11-26T20:47:17.519Z,75.18
2023-11-26T20:49:50.788Z,74.30
2023-11-26T20:52:19.771Z,75.03
2023-11-26T20:54:50.279Z,73.98
2023-11-26T20:57:17.351Z,74.42
2023-11-26T20:59:44.372Z,75.17
2023-11-26T21:02:11.718Z,74.31
2023-11-26T21:04:39.115Z,73.95
2023-11-26T21:07:06.592Z,75.95
2023-11-26T21:09:33.320Z,74.35
2023-11-26T21:12:00.244Z,73.81
2023-11-26T21:14:27.153Z,74.21
2023-11-26T21:16:54.531Z,74.69
2023-11-26T21:19:21.852Z,74.94
2023-11-26T21:21:49.783Z,73.33
2023-11-26T21:24:16.947Z,73.78
2023-11-26T21:26:44.780Z,74.54
2023-11-26T21:29:11.762Z,73.43
2023-11-26T21:31:38.669Z,72.40
2023-11-26T21:34:06.688Z,72.51
2023-11-26T21:36:33.951Z,70.94
2023-11-26T21:39:01.019Z,71.46
2023-11-26T21:41:28.333Z,70.76
2023-11-26T21:43:55.127Z,71.44
2023-11-26T21:46:34.986Z,70.11
2023-11-26T21:49:06.305Z,71.07
2023-11-26T21:51:33.150Z,71.11
2023-11-26T21:54:00.479Z,72.22
2023-11-26T21:56:27.446Z,70.22
2023-11-26T21:58:56.275Z,71.44
2023-11-26T22:01:23.552Z,72.23
2023-11-26T22:03:51.958Z,71.60
2023-11-26T22:06:19.207Z,71.94
2023-11-26T22:08:46.024Z,72.18
2023-11-26T22:11:19.845Z,72.30
2023-11-26T22:13:48.840Z,72.67
2023-11-26T22:16:17.776Z,72.22
2023-11-26T22:18:44.989Z,72.18
2023-11-26T22:21:22.740Z,73.06
2023-11-26T22:23:50.663Z,71.79
2023-11-26T22:26:17.839Z,70.95
2023-11-26T22:28:44.938Z,70.53
2023-11-26T22:31:16.665Z,72.15
2023-11-26T22:33:44.784Z,71.75
2023-11-26T22:36:22.550Z,71.63
2023-11-26T22:38:50.346Z,71.89
2023-11-26T22:41:27.971Z,72.29
2023-11-26T22:43:57.028Z,72.58
2023-11-26T22:46:28.924Z,72.95
2023-11-26T22:48:59.936Z,73.28
2023-11-26T22:51:32.357Z,73.86
2023-11-26T22:53:59.296Z,73.47
2023-11-26T22:56:26.261Z,74.30
2023-11-26T22:58:54.852Z,73.51
2023-11-26T23:01:25.924Z,74.23
2023-11-26T23:03:53.985Z,73.77
2023-11-26T23:06:21.697Z,74.03
2023-11-26T23:08:49.467Z,73.93
2023-11-26T23:11:18.959Z,74.72
2023-11-26T23:13:46.817Z,73.02
2023-11-26T23:16:17.575Z,73.54
2023-11-26T23:18:44.479Z,74.07
2023-11-26T23:21:13.138Z,73.72
2023-11-26T23:23:47.202Z,73.71
2023-11-26T23:26:18.937Z,73.33
2023-11-26T23:28:45.944Z,74.13
2023-11-26T23:31:19.526Z,74.30
2023-11-26T23:33:48.306Z,75.31
2023-11-26T23:36:16.017Z,75.01
2023-11-26T23:38:44.256Z,76.05
2023-11-26T23:41:12.484Z,75.65
2023-11-26T23:43:43.079Z,75.70
2023-11-26T23:46:10.710Z,75.36
2023-11-26T23:48:37.893Z,74.37
2023-11-26T23:51:04.797Z,73.71
2023-11-26T23:53:31.613Z,74.75
2023-11-26T23:55:58.388Z,74.37
2023-11-26T23:58:25.676Z,74.70
